Time;durP1;ratioP1;P1;durP2;ratioP2;P2;SDS_P1;SDS_P2;PMS_P1;PMS_P2;Temp;Humidity;BMP_temperature;BMP_pressure;BME280_temperature;BME280_humidity;BME280_pressure;Samples;Min_cycle;Max_cycle;Signal;HPM_P1;HPM_P2
2023/05/18 00:00:13;;;;;;;7.57;2.40;;;13.30;49.00;;;16.11;36.98;102780.44;5056959;28;20197;-66
2023/05/18 00:02:40;;;;;;;5.83;2.10;;;13.40;48.90;;;16.07;37.35;102776.44;5056848;28;20228;-66
2023/05/18 00:05:09;;;;;;;5.30;1.97;;;13.30;49.00;;;16.03;37.38;102777.75;5056411;28;20716;-67
2023/05/18 00:07:38;;;;;;;6.17;2.17;;;13.30;49.10;;;15.97;37.16;102781.06;5056522;28;20197;-66
2023/05/18 00:10:07;;;;;;;4.90;2.30;;;13.30;49.30;;;15.94;37.48;102778.72;5056597;28;20216;-66
2023/05/18 00:12:34;;;;;;;4.80;1.60;;;13.20;49.10;;;15.89;37.61;102785.47;5056609;28;20244;-68
2023/05/18 00:15:01;;;;;;;5.47;2.17;;;13.20;49.40;;;15.88;37.75;102786.50;5055970;28;20221;-67
2023/05/18 00:17:30;;;;;;;6.47;1.93;;;13.20;49.50;;;15.87;37.69;102785.66;5056559;28;20186;-67
2023/05/18 00:19:58;;;;;;;6.50;2.30;;;13.20;49.50;;;15.87;37.74;102788.31;5056666;28;20194;-67
2023/05/18 00:22:25;;;;;;;6.33;2.07;;;13.20;49.50;;;15.83;37.29;102792.25;5056060;28;20288;-67
2023/05/18 00:24:53;;;;;;;5.63;1.70;;;13.10;49.30;;;15.78;37.65;102789.25;5055904;28;20217;-67
2023/05/18 00:27:20;;;;;;;4.67;2.07;;;13.10;49.50;;;15.73;37.59;102790.72;5056661;28;20190;-67
2023/05/18 00:29:47;;;;;;;4.73;1.93;;;13.00;49.40;;;15.65;38.13;102798.63;5056702;28;20216;-67
2023/05/18 00:32:14;;;;;;;5.13;2.23;;;12.90;49.60;;;15.57;37.56;102788.78;5056408;28;20190;-67
2023/05/18 00:34:41;;;;;;;4.90;1.93;;;12.80;49.50;;;15.50;38.00;102793.88;5055670;28;20392;-67
2023/05/18 00:37:08;;;;;;;4.70;2.00;;;12.70;50.00;;;15.48;38.17;102797.69;5056188;28;20290;-66
2023/05/18 00:39:35;;;;;;;4.67;1.33;;;12.70;50.30;;;15.50;38.04;102788.56;5055642;28;20285;-67
2023/05/18 00:42:04;;;;;;;6.00;2.17;;;12.70;50.20;;;15.52;38.20;102789.25;5049114;28;20209;-67
2023/05/18 00:44:31;;;;;;;6.20;2.40;;;12.70;50.50;;;15.55;38.28;102794.25;5055850;28;20206;-67
2023/05/18 00:46:59;;;;;;;3.70;1.80;;;12.80;50.40;;;15.56;37.82;102792.44;5055834;28;20190;-67
2023/05/18 00:49:26;;;;;;;6.20;2.20;;;12.70;50.00;;;15.52;37.97;102799.06;5056145;28;20601;-67
2023/05/18 00:51:54;;;;;;;4.37;2.03;;;12.70;50.30;;;15.47;38.04;102790.72;5055797;28;20251;-67
2023/05/18 00:54:22;;;;;;;6.27;2.13;;;12.60;50.30;;;15.45;38.20;102792.72;5055635;28;20233;-67
2023/05/18 00:56:50;;;;;;;4.90;2.13;;;12.70;50.50;;;15.43;38.24;102791.97;5056414;28;20205;-67
2023/05/18 00:59:18;;;;;;;5.87;1.90;;;12.60;50.40;;;15.39;38.27;102793.28;5056228;28;20193;-66
2023/05/18 01:01:47;;;;;;;3.23;2.00;;;12.60;50.60;;;15.40;38.55;102787.00;5055925;28;20193;-67
2023/05/18 01:04:14;;;;;;;6.10;1.77;;;12.50;50.50;;;15.39;38.40;102778.19;5055403;28;20214;-67
2023/05/18 01:06:41;;;;;;;6.40;2.10;;;12.60;51.10;;;15.43;38.68;102786.66;5055257;28;20216;-66
2023/05/18 01:09:11;;;;;;;3.37;1.80;;;12.60;51.00;;;15.49;38.58;102788.75;5054867;28;20265;-66
2023/05/18 01:11:54;;;;;;;4.00;2.00;;;12.70;51.00;;;15.54;38.20;102786.47;5055809;28;20190;-66
2023/05/18 01:14:30;;;;;;;4.87;1.87;;;12.80;50.60;;;15.54;38.08;102789.13;5055373;28;20206;-66
2023/05/18 01:17:10;;;;;;;5.37;2.10;;;12.80;50.50;;;15.52;37.98;102788.44;5055453;28;20185;-67
2023/05/18 01:20:21;;;;;;;4.67;2.10;;;12.80;50.60;;;15.50;38.26;102795.69;5055526;28;20182;-66
2023/05/18 01:23:11;;;;;;;7.03;2.10;;;12.80;50.70;;;15.52;38.57;102796.41;5044249;28;20538;-67
2023/05/18 01:25:49;;;;;;;7.77;2.20;;;12.80;50.70;;;15.55;38.28;102790.75;5055294;28;20245;-68
2023/05/18 01:28:25;;;;;;;6.10;2.00;;;12.80;50.80;;;15.62;37.72;102794.47;5055588;28;20264;-68
2023/05/18 01:30:53;;;;;;;6.40;2.33;;;12.80;50.60;;;15.67;38.33;102792.16;5055476;28;20189;-68
2023/05/18 01:33:20;;;;;;;5.47;1.77;;;12.90;50.70;;;15.71;38.31;102793.53;5055014;28;20222;-68
2023/05/18 01:35:47;;;;;;;6.33;1.97;;;12.90;50.60;;;15.77;38.14;102790.25;5054864;28;20222;-68
2023/05/18 01:38:18;;;;;;;5.13;2.27;;;13.00;50.70;;;15.83;37.72;102794.91;5047987;28;20193;-66
2023/05/18 01:40:55;;;;;;;5.43;2.03;;;13.00;50.50;;;15.86;38.03;102797.25;5054879;28;20273;-66
2023/05/18 01:43:32;;;;;;;8.70;2.30;;;13.10;50.50;;;15.89;37.97;102798.75;5054835;28;20198;-67
2023/05/18 01:46:08;;;;;;;4.53;1.60;;;13.10;50.40;;;15.93;38.03;102800.94;5054935;28;20285;-67
2023/05/18 01:48:42;;;;;;;4.07;1.80;;;13.20;50.30;;;15.96;37.70;102797.97;5055258;28;20244;-67
2023/05/18 01:51:14;;;;;;;3.07;1.50;;;13.20;50.20;;;15.94;37.52;102794.66;5055594;28;20190;-67
2023/05/18 01:53:49;;;;;;;4.13;1.80;;;13.20;50.80;;;15.94;37.60;102792.00;5055609;28;20228;-66
2023/05/18 01:56:19;;;;;;;3.23;1.87;;;13.20;50.10;;;15.93;37.80;102798.28;5062378;28;20280;-68
2023/05/18 01:58:49;;;;;;;2.97;1.60;;;13.10;49.60;;;15.86;37.50;102799.06;5062759;28;20264;-67
2023/05/18 02:01:18;;;;;;;4.73;1.63;;;13.10;49.70;;;15.81;37.86;102796.88;5059627;28;20268;-67
2023/05/18 02:03:46;;;;;;;6.93;2.37;;;13.00;50.30;;;15.78;38.15;102799.88;5054790;28;20194;-67
2023/05/18 02:06:13;;;;;;;5.63;2.57;;;13.00;50.70;;;15.77;38.01;102790.25;5054399;28;20193;-67
2023/05/18 02:08:40;;;;;;;5.83;2.03;;;13.00;50.70;;;15.80;38.14;102803.22;5054243;28;20283;-67
2023/05/18 02:11:07;;;;;;;6.27;1.77;;;13.00;50.50;;;15.82;38.24;102789.75;5054226;28;20782;-71
2023/05/18 02:13:34;;;;;;;7.03;2.20;;;13.00;50.50;;;15.85;37.83;102802.72;5054144;28;20659;-67
2023/05/18 02:16:04;;;;;;;4.23;2.00;;;13.00;50.70;;;15.85;37.98;102795.59;5052890;28;20228;-67
2023/05/18 02:18:32;;;;;;;5.37;2.03;;;13.10;50.70;;;15.87;38.44;102792.78;5054395;28;20186;-67
2023/05/18 02:21:01;;;;;;;5.37;2.10;;;13.10;50.60;;;15.87;38.07;102801.59;5053745;28;20272;-67
2023/05/18 02:23:28;;;;;;;4.30;2.23;;;13.10;50.80;;;15.89;38.06;102796.94;5053630;28;20264;-67
2023/05/18 02:25:55;;;;;;;5.47;1.90;;;13.10;50.80;;;15.96;37.72;102797.97;5053752;28;20217;-67
2023/05/18 02:28:22;;;;;;;4.30;1.93;;;13.20;50.60;;;16.01;37.87;102795.69;5054050;28;20224;-67
2023/05/18 02:30:49;;;;;;;4.60;1.97;;;13.20;50.40;;;16.06;37.53;102796.03;5054564;28;20269;-66
2023/05/18 02:33:18;;;;;;;10.97;8.67;;;13.20;50.30;;;16.08;37.45;102796.69;5046694;28;20248;-66
2023/05/18 02:35:46;;;;;;;5.07;3.00;;;13.20;50.20;;;16.10;37.28;102799.19;5054042;28;20213;-67
2023/05/18 02:38:12;;;;;;;6.37;1.97;;;13.20;49.60;;;16.07;36.97;102800.34;5053968;28;20299;-67
2023/05/18 02:40:39;;;;;;;4.53;2.00;;;13.20;49.60;;;16.05;37.25;102799.66;5054153;28;20185;-67
2023/05/18 02:43:07;;;;;;;7.20;2.10;;;13.20;49.90;;;16.06;37.50;102804.00;5053518;28;20190;-67
2023/05/18 02:45:34;;;;;;;6.70;2.23;;;13.20;50.20;;;16.05;37.50;102797.00;5053675;28;20698;-67
2023/05/18 02:48:01;;;;;;;5.23;1.73;;;13.20;50.10;;;16.04;37.59;102800.69;5053486;28;20218;-67
2023/05/18 02:50:29;;;;;;;5.37;2.33;;;13.20;49.90;;;16.04;37.44;102795.38;5053705;28;20666;-67
2023/05/18 02:52:56;;;;;;;6.07;1.87;;;13.20;50.00;;;16.04;37.49;102794.53;5053250;28;20193;-67
2023/05/18 02:55:23;;;;;;;4.20;1.70;;;13.20;50.10;;;16.07;37.44;102797.69;5053797;28;20608;-67
2023/05/18 02:57:55;;;;;;;6.13;2.60;;;13.20;49.90;;;16.08;37.24;102799.34;5053936;28;20221;-67
2023/05/18 03:00:22;;;;;;;5.63;2.00;;;13.30;49.80;;;16.04;36.92;102795.38;5054025;28;20204;-66
2023/05/18 03:02:50;;;;;;;3.57;1.83;;;13.20;49.40;;;15.97;37.11;102799.66;5053528;28;20198;-67
2023/05/18 03:05:22;;;;;;;4.87;2.10;;;13.20;49.40;;;15.89;37.44;102796.94;5053479;28;20243;-66
2023/05/18 03:07:53;;;;;;;9.87;1.80;;;13.10;49.60;;;15.84;37.51;102798.41;5053363;28;20240;-67
2023/05/18 03:10:20;;;;;;;8.00;2.10;;;13.00;49.90;;;15.80;37.45;102797.91;5053738;28;20185;-66
2023/05/18 03:12:48;;;;;;;4.43;1.77;;;13.00;49.80;;;15.78;37.69;102794.56;5053186;28;20703;-66
2023/05/18 03:15:15;;;;;;;6.90;2.30;;;12.90;50.10;;;15.76;37.90;102799.19;5052962;28;20567;-68
2023/05/18 03:17:42;;;;;;;7.83;1.87;;;12.90;50.20;;;15.77;37.78;102800.03;5053620;28;20185;-68
2023/05/18 03:20:13;;;;;;;6.13;2.30;;;12.90;50.40;;;15.78;37.88;102807.84;5053151;28;20662;-68
2023/05/18 03:22:40;;;;;;;5.20;1.83;;;12.90;50.50;;;15.80;37.89;102805.88;5053334;28;20194;-68
2023/05/18 03:25:08;;;;;;;3.90;1.77;;;12.90;50.10;;;15.83;37.69;102807.38;5052881;28;20221;-68
2023/05/18 03:27:36;;;;;;;5.70;1.83;;;13.00;50.40;;;15.87;37.54;102803.41;5053037;28;20244;-68
2023/05/18 03:30:05;;;;;;;10.90;2.30;;;13.00;50.10;;;15.88;37.29;102799.78;5045620;28;20233;-68
2023/05/18 03:32:32;;;;;;;4.03;1.70;;;12.90;49.60;;;15.84;37.48;102809.84;5054808;28;20185;-66
2023/05/18 03:35:03;;;;;;;4.13;1.77;;;12.90;49.90;;;15.83;37.38;102812.69;5055774;28;20201;-68
2023/05/18 03:37:31;;;;;;;6.20;2.17;;;12.90;50.10;;;15.81;37.67;102817.31;5057604;28;20177;-68
2023/05/18 03:40:09;;;;;;;4.50;2.20;;;12.80;50.00;;;15.75;37.38;102809.97;5057449;28;20225;-68
2023/05/18 03:42:37;;;;;;;6.97;2.37;;;12.80;50.20;;;15.71;37.53;102809.47;5056050;28;20232;-67
2023/05/18 03:45:05;;;;;;;4.60;1.80;;;12.80;50.00;;;15.66;37.80;102806.44;5056738;28;20201;-67
2023/05/18 03:47:33;;;;;;;5.87;2.00;;;12.80;50.50;;;15.64;37.98;102819.06;5057149;28;20217;-67
2023/05/18 03:49:59;;;;;;;9.77;2.37;;;12.80;50.60;;;15.64;37.92;102810.25;5057427;28;20198;-68
2023/05/18 03:52:28;;;;;;;3.47;1.70;;;12.70;50.50;;;15.65;37.98;102811.91;5057417;28;20280;-66
2023/05/18 03:54:55;;;;;;;5.90;1.70;;;12.70;50.70;;;15.67;37.84;102818.72;5058549;28;20213;-68
2023/05/18 03:57:24;;;;;;;4.77;2.30;;;12.80;51.00;;;15.67;37.58;102816.06;5057318;28;20280;-68
2023/05/18 03:59:51;;;;;;;3.57;1.70;;;12.70;50.10;;;15.70;37.61;102818.41;5055774;28;20189;-69
2023/05/18 04:02:18;;;;;;;6.20;2.00;;;12.80;50.30;;;15.72;37.39;102816.44;5057024;28;20676;-68
2023/05/18 04:04:46;;;;;;;5.23;1.90;;;12.80;49.90;;;15.75;37.79;102821.44;5056621;28;20217;-68
2023/05/18 04:07:16;;;;;;;5.00;1.90;;;12.80;50.50;;;15.77;37.81;102819.44;5056611;28;20225;-68
2023/05/18 04:09:43;;;;;;;4.90;2.07;;;12.80;50.80;;;15.84;37.85;102823.13;5056660;28;20200;-67
2023/05/18 04:12:10;;;;;;;7.43;2.17;;;12.90;50.50;;;15.86;37.63;102818.50;5056897;28;20633;-67
2023/05/18 04:14:41;;;;;;;4.20;1.70;;;12.90;50.10;;;15.84;37.44;102831.09;5055880;28;20720;-68
2023/05/18 04:17:08;;;;;;;5.87;1.90;;;12.90;50.40;;;15.83;37.48;102834.75;5057021;28;20468;-67
2023/05/18 04:19:36;;;;;;;4.07;1.90;;;12.90;50.80;;;15.88;37.71;102831.63;5056394;28;20634;-67
2023/05/18 04:22:06;;;;;;;4.87;1.40;;;12.90;50.60;;;15.90;37.67;102825.16;5056129;28;20654;-67
2023/05/18 04:24:34;;;;;;;4.20;1.77;;;13.00;50.40;;;15.94;37.49;102831.84;5055967;28;20698;-67
2023/05/18 04:27:02;;;;;;;5.00;1.87;;;13.00;50.50;;;16.03;37.55;102838.84;5056404;28;20202;-67
2023/05/18 04:29:29;;;;;;;6.23;2.07;;;13.10;50.30;;;16.05;36.96;102834.22;5056082;28;20605;-67
2023/05/18 04:32:00;;;;;;;7.03;2.37;;;13.10;50.30;;;16.09;37.22;102850.69;5056064;28;20352;-68
2023/05/18 04:34:30;;;;;;;5.37;2.00;;;13.10;50.40;;;16.12;37.69;102845.88;5056119;28;20210;-67
2023/05/18 04:36:57;;;;;;;6.00;2.10;;;13.20;50.30;;;16.17;37.21;102856.00;5056225;28;20248;-68
2023/05/18 04:39:26;;;;;;;5.37;1.83;;;13.20;50.10;;;16.21;37.07;102858.19;5056290;28;20622;-67
2023/05/18 04:41:57;;;;;;;7.70;1.93;;;13.20;49.70;;;16.22;36.91;102856.38;5056243;28;20202;-67
2023/05/18 04:44:24;;;;;;;4.80;1.70;;;13.30;49.50;;;16.24;37.21;102859.69;5055498;28;20256;-68
2023/05/18 04:46:52;;;;;;;5.80;1.67;;;13.30;49.60;;;16.27;36.68;102857.56;5056065;28;20186;-67
2023/05/18 04:49:21;;;;;;;7.20;2.30;;;13.30;49.50;;;16.30;36.86;102866.22;5055839;28;20182;-67
2023/05/18 04:51:49;;;;;;;3.87;1.77;;;13.40;49.60;;;16.34;36.80;102864.88;5055743;28;20189;-67
2023/05/18 04:54:15;;;;;;;3.43;1.80;;;13.30;49.40;;;16.36;36.96;102865.56;5055693;28;20300;-67
2023/05/18 04:56:42;;;;;;;3.83;1.53;;;13.40;49.80;;;16.40;36.83;102861.59;5054651;28;20805;-67
2023/05/18 04:59:09;;;;;;;4.17;1.63;;;13.40;49.70;;;16.44;36.73;102860.28;5055553;28;20205;-67
2023/05/18 05:01:36;;;;;;;7.10;1.77;;;13.40;49.20;;;16.49;36.13;102864.13;5055834;28;20689;-67
2023/05/18 05:04:05;;;;;;;4.10;2.30;;;13.50;48.70;;;16.52;35.66;102865.69;5054167;28;20209;-67
2023/05/18 05:06:33;;;;;;;2.90;1.30;;;13.50;47.90;;;16.53;35.28;102865.50;5055724;28;20297;-67
2023/05/18 05:09:00;;;;;;;4.73;1.90;;;13.50;47.30;;;16.53;35.33;102865.50;5056117;28;20730;-68
2023/05/18 05:11:27;;;;;;;4.60;1.80;;;13.50;47.40;;;16.55;35.53;102868.84;5055654;28;20218;-67
2023/05/18 05:13:54;;;;;;;3.77;1.80;;;13.50;47.60;;;16.59;34.84;102874.66;5055040;28;20273;-68
2023/05/18 05:16:21;;;;;;;3.47;1.70;;;13.50;46.80;;;16.56;35.19;102872.31;5055393;28;20218;-68
2023/05/18 05:18:48;;;;;;;7.13;2.10;;;13.50;47.00;;;16.58;35.44;102868.53;5055435;28;20193;-66
2023/05/18 05:21:15;;;;;;;3.80;1.70;;;13.50;47.00;;;16.62;34.98;102871.66;5054436;28;20194;-66
2023/05/18 05:23:44;;;;;;;3.93;1.43;;;13.50;46.40;;;16.63;34.75;102873.34;5055007;28;20194;-66
2023/05/18 05:26:11;;;;;;;6.60;2.13;;;13.50;46.70;;;16.66;34.94;102873.84;5041242;28;20209;-67
2023/05/18 05:28:38;;;;;;;5.43;1.73;;;13.60;46.90;;;16.71;34.59;102878.72;5035378;28;20202;-69
2023/05/18 05:31:05;;;;;;;4.00;1.67;;;13.60;47.60;;;16.77;34.82;102875.38;5035174;28;20198;-67
2023/05/18 05:33:32;;;;;;;3.40;1.83;;;13.60;46.90;;;16.84;34.75;102881.72;5034886;28;20278;-67
2023/05/18 05:35:59;;;;;;;4.20;1.97;;;13.70;46.80;;;16.89;34.60;102882.06;5034564;28;20215;-67
2023/05/18 05:38:26;;;;;;;8.17;2.30;;;13.80;46.60;;;16.95;34.32;102892.03;5034873;28;20672;-67
2023/05/18 05:40:55;;;;;;;3.53;1.73;;;13.80;46.20;;;16.99;34.21;102887.25;5034888;28;20190;-67
2023/05/18 05:43:21;;;;;;;6.40;1.83;;;13.90;46.30;;;17.04;34.12;102888.44;5034869;28;20185;-67
2023/05/18 05:45:49;;;;;;;3.13;1.93;;;13.90;46.10;;;17.08;34.27;102887.09;5034936;28;20742;-67
2023/05/18 05:48:16;;;;;;;3.27;1.50;;;14.00;46.30;;;17.15;34.23;102887.25;5034816;28;20232;-67
2023/05/18 05:50:43;;;;;;;3.97;1.57;;;14.00;46.20;;;17.22;33.84;102883.78;5034451;28;20198;-67
2023/05/18 05:53:10;;;;;;;4.73;1.93;;;14.10;45.80;;;17.26;33.94;102890.44;5034717;28;20222;-67
2023/05/18 05:55:40;;;;;;;3.97;2.50;;;14.10;45.50;;;17.29;33.63;102881.28;5033566;28;20214;-67
2023/05/18 05:58:09;;;;;;;5.60;1.90;;;14.20;45.40;;;17.22;33.86;102889.09;5034321;28;20344;-67
2023/05/18 06:00:36;;;;;;;7.77;1.90;;;14.20;45.20;;;17.12;33.55;102893.75;5034080;28;20630;-68
2023/05/18 06:03:03;;;;;;;4.67;1.90;;;14.20;45.00;;;17.01;33.74;102891.41;5038484;28;20228;-67
2023/05/18 06:05:30;;;;;;;5.30;1.83;;;14.10;44.90;;;17.02;34.00;102893.06;5054711;28;20210;-67
2023/05/18 06:07:57;;;;;;;6.37;2.20;;;14.00;45.10;;;17.03;33.56;102889.41;5053139;28;20196;-67
2023/05/18 06:10:24;;;;;;;5.57;1.87;;;14.00;44.80;;;17.04;33.39;102893.75;5054423;28;20221;-66
2023/05/18 06:12:51;;;;;;;5.13;1.80;;;13.90;44.50;;;17.05;33.80;102897.22;5054632;28;20204;-67
2023/05/18 06:15:20;;;;;;;5.07;2.00;;;13.90;44.80;;;17.08;33.65;102896.91;5054386;28;20221;-67
2023/05/18 06:17:47;;;;;;;2.30;1.50;;;13.90;45.00;;;17.12;33.49;102903.53;5054101;28;20190;-66
2023/05/18 06:20:14;;;;;;;4.03;2.20;;;13.90;45.10;;;17.18;33.14;102898.41;5054303;28;20185;-66
2023/05/18 06:22:42;;;;;;;3.07;1.53;;;14.00;44.90;;;17.23;33.07;102901.44;5054216;28;20216;-66
2023/05/18 06:25:09;;;;;;;8.57;4.00;;;14.00;44.60;;;17.27;33.19;102897.44;5048003;28;20314;-67
2023/05/18 06:27:37;;;;;;;9.47;2.43;;;14.00;44.90;;;17.37;33.11;102892.78;5034258;28;20186;-68
2023/05/18 06:30:07;;;;;;;5.73;2.00;;;14.10;44.90;;;17.48;32.85;102895.09;5033805;28;20663;-67
2023/05/18 06:32:36;;;;;;;4.60;1.87;;;14.10;44.30;;;17.55;32.77;102901.47;5033626;28;20254;-67
2023/05/18 06:35:05;;;;;;;3.70;1.80;;;14.20;44.10;;;17.68;32.74;102910.78;5033800;28;20245;-67
2023/05/18 06:37:32;;;;;;;4.10;1.97;;;14.20;44.50;;;17.79;32.51;102908.59;5033548;28;20293;-67
2023/05/18 06:39:59;;;;;;;3.87;1.90;;;14.30;44.20;;;17.92;32.54;102908.94;5033754;28;20304;-67
2023/05/18 06:42:26;;;;;;;5.47;1.87;;;14.40;44.40;;;17.98;32.17;102907.41;5033628;28;20285;-67
2023/05/18 06:44:53;;;;;;;4.10;1.57;;;14.50;44.10;;;18.08;32.23;102914.22;5033735;28;20293;-67
2023/05/18 06:47:20;;;;;;;4.03;1.90;;;14.60;44.00;;;18.20;32.08;102917.34;5033668;28;20583;-67
2023/05/18 06:49:48;;;;;;;5.07;1.70;;;14.70;43.70;;;18.22;31.72;102918.00;5033536;28;20256;-67
2023/05/18 06:52:15;;;;;;;8.53;2.83;;;14.80;43.30;;;18.17;31.76;102915.03;5033894;28;20194;-67
2023/05/18 06:54:42;;;;;;;5.10;2.17;;;14.70;43.10;;;18.13;32.01;102919.03;5033552;28;20229;-68
2023/05/18 06:57:09;;;;;;;3.07;1.60;;;14.80;43.30;;;18.13;31.84;102916.38;5035346;28;20202;-67
2023/05/18 06:59:36;;;;;;;3.73;1.90;;;14.80;43.30;;;18.17;32.20;102923.00;5033502;28;20600;-67
2023/05/18 07:02:04;;;;;;;4.53;2.20;;;14.80;43.50;;;18.23;31.99;102922.34;5033511;28;20277;-67
2023/05/18 07:04:31;;;;;;;5.43;2.80;;;14.80;43.30;;;18.29;31.76;102926.97;5049810;28;20206;-67
2023/05/18 07:06:59;;;;;;;5.60;3.10;;;14.90;42.90;;;18.30;31.83;102911.81;5053307;28;20210;-67
2023/05/18 07:09:26;;;;;;;5.90;2.37;;;14.90;42.80;;;18.31;31.71;102924.13;5053328;28;20202;-68
2023/05/18 07:11:53;;;;;;;8.03;2.83;;;14.90;42.90;;;18.32;31.67;102921.31;5053460;28;20273;-67
2023/05/18 07:14:20;;;;;;;3.37;2.10;;;14.90;43.00;;;18.31;31.82;102919.63;5053252;28;20224;-67
2023/05/18 07:16:47;;;;;;;5.93;2.77;;;14.90;43.00;;;18.31;31.67;102919.63;5053142;28;20208;-69
2023/05/18 07:19:14;;;;;;;2.67;2.30;;;14.90;42.70;;;18.27;31.62;102918.34;5052946;28;20198;-67
2023/05/18 07:21:41;;;;;;;3.47;2.30;;;14.90;42.80;;;18.24;31.65;102910.66;5053168;28;20209;-69
2023/05/18 07:24:10;;;;;;;3.13;2.03;;;14.90;43.00;;;18.28;31.87;102919.97;5052787;28;20581;-67
2023/05/18 07:26:37;;;;;;;4.67;1.70;;;14.90;43.30;;;18.37;31.88;102920.81;5053179;28;20532;-68
2023/05/18 07:29:04;;;;;;;4.70;1.87;;;15.00;43.40;;;18.52;31.96;102921.78;5053150;28;20182;-68
2023/05/18 07:31:31;;;;;;;4.07;1.90;;;15.00;43.30;;;18.64;31.49;102915.88;5053198;28;20194;-68
2023/05/18 07:33:58;;;;;;;4.63;2.30;;;15.10;42.80;;;18.71;31.15;102916.84;5052808;28;20255;-68
2023/05/18 07:36:27;;;;;;;5.73;2.13;;;15.20;42.70;;;18.76;31.05;102919.81;5053073;28;20218;-69
2023/05/18 07:38:55;;;;;;;3.10;1.87;;;15.20;42.30;;;18.83;31.27;102919.94;5053526;28;20217;-68
2023/05/18 07:41:23;;;;;;;4.20;2.23;;;15.30;42.70;;;18.94;31.01;102917.72;5053114;28;20209;-68
2023/05/18 07:43:51;;;;;;;3.63;2.23;;;15.30;42.70;;;19.04;31.00;102922.03;5052861;28;20193;-68
2023/05/18 07:46:18;;;;;;;3.13;1.63;;;15.40;42.30;;;19.09;30.79;102919.66;5053047;28;20208;-68
2023/05/18 07:48:45;;;;;;;5.27;2.17;;;15.40;42.20;;;19.12;30.57;102916.59;5052939;28;20698;-68
2023/05/18 07:51:12;;;;;;;4.47;1.83;;;15.50;41.90;;;19.10;30.56;102910.63;5053242;28;20668;-68
2023/05/18 07:53:40;;;;;;;6.53;2.63;;;15.50;41.20;;;19.03;30.47;102909.66;5052633;28;20237;-68
2023/05/18 07:56:08;;;;;;;4.63;2.07;;;15.50;41.60;;;19.01;30.72;102911.69;5052681;28;20232;-68
2023/05/18 07:58:37;;;;;;;4.03;1.87;;;15.50;41.90;;;19.08;30.74;102917.97;5052881;28;20380;-68
2023/05/18 08:01:04;;;;;;;8.10;2.00;;;15.60;42.00;;;19.07;30.65;102913.63;5051952;28;20288;-68
2023/05/18 08:03:31;;;;;;;2.63;1.90;;;15.60;41.70;;;19.05;30.52;102915.66;5051786;28;20256;-68
2023/05/18 08:05:59;;;;;;;5.47;2.23;;;15.60;41.50;;;19.06;30.58;102925.34;5052565;28;20224;-68
2023/05/18 08:08:27;;;;;;;6.57;1.80;;;15.60;41.70;;;19.21;30.71;102918.22;5052695;28;20194;-68
2023/05/18 08:10:54;;;;;;;4.63;1.97;;;15.60;41.80;;;19.40;30.46;102925.78;5052816;28;20221;-68
2023/05/18 08:13:21;;;;;;;6.30;2.10;;;15.70;41.90;;;19.70;29.67;102918.69;5052504;28;20186;-68
2023/05/18 08:15:49;;;;;;;5.93;1.70;;;15.80;41.40;;;19.91;29.80;102917.00;5052585;28;20214;-68
2023/05/18 08:18:36;;;;;;;5.37;2.10;;;15.90;41.30;;;20.07;29.35;102922.16;5054437;28;20202;-68
2023/05/18 08:21:06;;;;;;;4.07;2.10;;;16.10;41.10;;;20.21;29.18;102923.19;5056680;28;20198;-67
2023/05/18 08:23:34;;;;;;;4.73;2.00;;;16.20;40.80;;;20.26;29.32;102926.16;5056359;28;20200;-69
2023/05/18 08:26:02;;;;;;;4.07;1.77;;;16.30;40.60;;;20.29;29.42;102927.66;5056182;28;20642;-67
2023/05/18 08:28:29;;;;;;;2.73;1.93;;;16.30;40.50;;;20.38;28.72;102927.38;5055958;28;20190;-67
2023/05/18 08:30:57;;;;;;;4.27;1.80;;;16.40;40.30;;;20.87;28.21;102915.00;5056222;28;20198;-67
2023/05/18 08:33:24;;;;;;;8.93;2.03;;;16.50;39.80;;;21.29;28.09;102919.63;5055494;28;20194;-69
2023/05/18 08:35:53;;;;;;;5.43;2.10;;;16.70;40.10;;;21.62;27.39;102913.72;5055674;28;20233;-68
2023/05/18 08:38:20;;;;;;;3.57;1.80;;;17.00;39.30;;;21.61;27.58;102918.25;5056021;28;20212;-69
2023/05/18 08:41:00;;;;;;;2.73;1.77;;;17.20;38.90;;;21.58;27.49;102919.47;5055860;28;20193;-70
2023/05/18 08:43:32;;;;;;;4.30;1.77;;;17.30;38.40;;;21.55;27.60;102924.41;5055647;28;20194;-67
2023/05/18 08:46:09;;;;;;;5.43;1.90;;;17.40;38.20;;;22.03;27.57;102926.25;5055764;28;20233;-67
2023/05/18 08:48:37;;;;;;;5.20;2.10;;;17.50;38.60;;;23.46;26.07;102927.06;5055564;28;20265;-67
2023/05/18 08:51:07;;;;;;;5.10;2.17;;;17.80;39.10;;;24.33;24.26;102924.06;5055813;28;20193;-67
2023/05/18 08:53:37;;;;;;;3.90;1.90;;;18.40;37.10;;;24.35;23.75;102924.66;5055301;28;20256;-67
2023/05/18 08:56:05;;;;;;;4.57;1.90;;;18.80;36.20;;;23.90;24.35;102924.53;5055398;28;20244;-69
2023/05/18 08:58:39;;;;;;;3.37;1.70;;;19.10;35.40;;;23.52;24.69;102916.28;5055125;28;20660;-68
2023/05/18 09:01:08;;;;;;;3.80;1.70;;;19.00;35.00;;;23.43;24.72;102922.06;5055337;28;20181;-67
2023/05/18 09:03:37;;;;;;;3.43;2.07;;;19.00;34.90;;;23.30;25.02;102920.16;5054838;28;20197;-67
2023/05/18 09:06:06;;;;;;;3.50;2.00;;;19.00;35.00;;;23.22;25.04;102919.53;5055108;28;20241;-68
2023/05/18 09:08:33;;;;;;;7.03;1.90;;;18.90;35.40;;;23.39;25.09;102926.22;5055223;28;20192;-68
2023/05/18 09:11:02;;;;;;;5.57;1.90;;;18.90;35.50;;;23.73;24.70;102912.56;5055630;28;20558;-68
2023/05/18 09:13:30;;;;;;;4.17;2.30;;;18.90;35.40;;;23.82;24.67;102908.59;5053897;28;20277;-68
2023/05/18 09:15:57;;;;;;;3.97;2.27;;;19.00;35.40;;;23.81;24.64;102909.66;5035151;28;20218;-68
2023/05/18 09:18:25;;;;;;;4.87;2.10;;;19.10;35.20;;;23.81;24.53;102912.34;5035376;28;20221;-68
2023/05/18 09:20:54;;;;;;;4.27;2.40;;;19.10;35.00;;;23.68;24.49;102903.47;5035397;28;20601;-68
2023/05/18 09:23:22;;;;;;;5.40;1.97;;;19.10;34.80;;;23.51;24.79;102903.88;5035181;28;20205;-68
2023/05/18 09:25:51;;;;;;;4.43;2.03;;;19.10;35.10;;;23.67;24.89;102901.81;5035347;28;20237;-68
2023/05/18 09:28:30;;;;;;;4.00;2.20;;;19.10;35.30;;;24.38;24.25;102900.03;5035264;28;20201;-68
2023/05/18 09:30:57;;;;;;;6.27;2.50;;;19.30;35.50;;;26.09;23.41;102901.31;5034196;28;20193;-69
2023/05/18 09:33:31;;;;;;;5.10;1.90;;;19.60;35.70;;;27.64;21.40;102891.50;5035020;28;20194;-68
2023/05/18 09:35:58;;;;;;;4.67;2.13;;;20.20;35.80;;;27.99;20.55;102893.16;5035343;28;20706;-68
2023/05/18 09:38:26;;;;;;;5.07;2.47;;;20.80;33.70;;;27.85;20.50;102896.31;5034891;28;20221;-68
2023/05/18 09:40:54;;;;;;;5.63;2.47;;;21.30;32.60;;;27.88;20.60;102885.84;5034790;28;20194;-68
2023/05/18 09:43:21;;;;;;;8.40;2.17;;;21.60;32.20;;;27.65;20.57;102893.94;5034647;28;20269;-68
2023/05/18 09:45:48;;;;;;;3.93;2.17;;;21.80;31.30;;;27.89;20.33;102886.63;5035189;28;20210;-68
2023/05/18 09:48:16;;;;;;;4.17;2.03;;;22.00;30.80;;;28.93;19.81;102883.66;5034827;28;20254;-68
2023/05/18 09:50:45;;;;;;;4.53;2.00;;;22.20;31.20;;;30.08;18.18;102884.69;5034841;28;20229;-68
2023/05/18 09:53:14;;;;;;;5.93;2.17;;;22.60;30.40;;;31.31;17.52;102880.28;5034767;28;20206;-68
2023/05/18 09:55:46;;;;;;;7.20;2.90;;;23.10;30.80;;;32.50;16.83;102875.81;5034494;28;20884;-69
2023/05/18 09:58:14;;;;;;;4.43;2.10;;;23.70;29.10;;;33.28;16.18;102874.53;5034365;28;20232;-68
2023/05/18 10:00:46;;;;;;;3.43;2.07;;;24.30;29.00;;;34.19;15.57;102877.06;5052953;28;20697;-69
2023/05/18 10:03:18;;;;;;;6.43;2.60;;;24.90;28.50;;;33.81;15.06;102873.09;5052773;28;20267;-69
2023/05/18 10:05:47;;;;;;;4.77;2.20;;;25.20;26.30;;;32.79;15.39;102873.41;5034209;28;20210;-68
2023/05/18 10:08:15;;;;;;;10.30;2.40;;;25.30;26.50;;;31.92;16.55;102870.63;5040121;28;20249;-68
2023/05/18 10:10:45;;;;;;;5.40;2.20;;;25.30;26.70;;;30.92;17.47;102876.16;5054369;28;20273;-67
2023/05/18 10:13:13;;;;;;;4.93;2.07;;;25.10;26.50;;;30.08;17.67;102876.53;5053811;28;20217;-69
2023/05/18 10:15:47;;;;;;;7.80;2.50;;;24.80;26.50;;;29.79;17.90;102871.50;5053390;28;20352;-68
2023/05/18 10:18:21;;;;;;;3.83;2.07;;;24.40;26.50;;;30.26;17.46;102869.97;5054006;28;20241;-68